sensor_id;sensor_type;location;lat;lon;timestamp;temperature;humidity
13049;DHT22;6591;51.446;5.404;2022-09-01T00:00:04;19.40;67.60
13049;DHT22;6591;51.446;5.404;2022-09-01T00:02:35;19.40;67.30
13049;DHT22;6591;51.446;5.404;2022-09-01T00:09:16;19.20;67.70
13049;DHT22;6591;51.446;5.404;2022-09-01T00:11:49;19.20;67.60
13049;DHT22;6591;51.446;5.404;2022-09-01T00:14:24;19.10;67.90
13049;DHT22;6591;51.446;5.404;2022-09-01T00:17:03;19.00;68.00
13049;DHT22;6591;51.446;5.404;2022-09-01T00:19:32;19.00;68.20
13049;DHT22;6591;51.446;5.404;2022-09-01T00:22:05;19.00;68.70
13049;DHT22;6591;51.446;5.404;2022-09-01T00:24:33;18.10;68.40
13049;DHT22;6591;51.446;5.404;2022-09-01T00:27:00;19.70;69.50
13049;DHT22;6591;51.446;5.404;2022-09-01T00:29:27;17.00;67.90
13049;DHT22;6591;51.446;5.404;2022-09-01T00:31:54;17.00;67.80
13049;DHT22;6591;51.446;5.404;2022-09-01T00:34:22;18.70;69.00
13049;DHT22;6591;51.446;5.404;2022-09-01T00:36:49;18.60;70.20
13049;DHT22;6591;51.446;5.404;2022-09-01T00:39:16;18.50;69.50
13049;DHT22;6591;51.446;5.404;2022-09-01T00:41:44;20.10;71.00
13049;DHT22;6591;51.446;5.404;2022-09-01T00:44:16;18.50;70.20
13049;DHT22;6591;51.446;5.404;2022-09-01T00:46:50;19.40;71.20
13049;DHT22;6591;51.446;5.404;2022-09-01T00:49:31;18.50;70.80
13049;DHT22;6591;51.446;5.404;2022-09-01T00:52:31;18.40;71.20
13049;DHT22;6591;51.446;5.404;2022-09-01T00:55:12;18.40;71.60
13049;DHT22;6591;51.446;5.404;2022-09-01T00:57:44;18.30;71.40
13049;DHT22;6591;51.446;5.404;2022-09-01T01:00:16;19.50;72.50
13049;DHT22;6591;51.446;5.404;2022-09-01T01:02:47;18.20;71.50
13049;DHT22;6591;51.446;5.404;2022-09-01T01:05:28;19.00;72.20
13049;DHT22;6591;51.446;5.404;2022-09-01T01:08:02;18.10;72.50
13049;DHT22;6591;51.446;5.404;2022-09-01T01:10:33;18.00;72.80
13049;DHT22;6591;51.446;5.404;2022-09-01T01:13:13;19.90;73.60
13049;DHT22;6591;51.446;5.404;2022-09-01T01:15:43;18.00;73.40
13049;DHT22;6591;51.446;5.404;2022-09-01T01:18:12;18.90;73.40
13049;DHT22;6591;51.446;5.404;2022-09-01T01:21:01;17.80;73.00
13049;DHT22;6591;51.446;5.404;2022-09-01T01:24:08;18.00;74.20
13049;DHT22;6591;51.446;5.404;2022-09-01T01:26:50;17.70;73.70
13049;DHT22;6591;51.446;5.404;2022-09-01T01:29:18;17.60;74.20
13049;DHT22;6591;51.446;5.404;2022-09-01T01:31:47;17.70;73.90
13049;DHT22;6591;51.446;5.404;2022-09-01T01:34:18;19.00;74.60
13049;DHT22;6591;51.446;5.404;2022-09-01T01:36:45;17.60;74.60
13049;DHT22;6591;51.446;5.404;2022-09-01T01:39:17;19.10;75.10
13049;DHT22;6591;51.446;5.404;2022-09-01T01:41:49;18.60;75.50
13049;DHT22;6591;51.446;5.404;2022-09-01T01:44:22;17.40;74.80
13049;DHT22;6591;51.446;5.404;2022-09-01T01:46:56;17.40;75.30
13049;DHT22;6591;51.446;5.404;2022-09-01T01:49:26;17.30;75.20
13049;DHT22;6591;51.446;5.404;2022-09-01T01:51:54;17.30;75.10
13049;DHT22;6591;51.446;5.404;2022-09-01T01:54:28;18.20;75.90
13049;DHT22;6591;51.446;5.404;2022-09-01T01:57:01;17.30;76.50
13049;DHT22;6591;51.446;5.404;2022-09-01T01:59:31;17.20;75.70
13049;DHT22;6591;51.446;5.404;2022-09-01T02:01:59;17.10;75.70
13049;DHT22;6591;51.446;5.404;2022-09-01T02:04:30;17.00;77.00
13049;DHT22;6591;51.446;5.404;2022-09-01T02:07:08;17.00;76.50
13049;DHT22;6591;51.446;5.404;2022-09-01T02:09:39;19.10;77.80
13049;DHT22;6591;51.446;5.404;2022-09-01T02:12:09;19.20;77.70
13049;DHT22;6591;51.446;5.404;2022-09-01T02:14:41;16.90;75.90
13049;DHT22;6591;51.446;5.404;2022-09-01T02:17:08;19.20;77.60
13049;DHT22;6591;51.446;5.404;2022-09-01T02:19:35;19.00;78.50
13049;DHT22;6591;51.446;5.404;2022-09-01T02:22:05;16.70;77.50
13049;DHT22;6591;51.446;5.404;2022-09-01T02:24:37;16.70;77.70
13049;DHT22;6591;51.446;5.404;2022-09-01T02:27:10;17.00;77.60
13049;DHT22;6591;51.446;5.404;2022-09-01T02:29:38;18.60;78.70
13049;DHT22;6591;51.446;5.404;2022-09-01T02:32:09;18.70;78.90
13049;DHT22;6591;51.446;5.404;2022-09-01T02:34:37;16.60;77.60
13049;DHT22;6591;51.446;5.404;2022-09-01T02:37:05;17.30;78.30
13049;DHT22;6591;51.446;5.404;2022-09-01T02:39:32;16.00;77.20
13049;DHT22;6591;51.446;5.404;2022-09-01T02:42:03;16.50;77.80
13049;DHT22;6591;51.446;5.404;2022-09-01T02:44:30;16.60;78.60
13049;DHT22;6591;51.446;5.404;2022-09-01T02:46:59;16.50;78.70
13049;DHT22;6591;51.446;5.404;2022-09-01T02:49:27;16.40;78.20
13049;DHT22;6591;51.446;5.404;2022-09-01T02:51:57;14.40;77.20
13049;DHT22;6591;51.446;5.404;2022-09-01T02:54:31;16.40;79.10
13049;DHT22;6591;51.446;5.404;2022-09-01T02:57:02;16.30;79.00
13049;DHT22;6591;51.446;5.404;2022-09-01T02:59:29;16.30;79.60
13049;DHT22;6591;51.446;5.404;2022-09-01T03:02:02;17.50;80.70
13049;DHT22;6591;51.446;5.404;2022-09-01T03:04:35;16.20;79.80
13049;DHT22;6591;51.446;5.404;2022-09-01T03:07:04;14.90;79.00
13049;DHT22;6591;51.446;5.404;2022-09-01T03:09:32;16.40;80.00
13049;DHT22;6591;51.446;5.404;2022-09-01T03:12:02;15.00;79.40
13049;DHT22;6591;51.446;5.404;2022-09-01T03:14:29;16.00;80.30
13049;DHT22;6591;51.446;5.404;2022-09-01T03:16:59;16.00;80.90
13049;DHT22;6591;51.446;5.404;2022-09-01T03:19:27;17.70;82.70
13049;DHT22;6591;51.446;5.404;2022-09-01T03:22:06;18.50;82.90
13049;DHT22;6591;51.446;5.404;2022-09-01T03:24:33;14.30;80.10
13049;DHT22;6591;51.446;5.404;2022-09-01T03:27:01;16.30;81.90
13049;DHT22;6591;51.446;5.404;2022-09-01T03:29:29;16.00;81.00
13049;DHT22;6591;51.446;5.404;2022-09-01T03:31:56;17.60;83.50
13049;DHT22;6591;51.446;5.404;2022-09-01T03:34:25;15.50;81.80
13049;DHT22;6591;51.446;5.404;2022-09-01T03:36:53;15.70;81.40
13049;DHT22;6591;51.446;5.404;2022-09-01T03:39:25;17.00;82.90
13049;DHT22;6591;51.446;5.404;2022-09-01T03:41:52;13.40;80.30
13049;DHT22;6591;51.446;5.404;2022-09-01T03:44:21;15.60;82.20
13049;DHT22;6591;51.446;5.404;2022-09-01T03:46:48;14.00;81.00
13049;DHT22;6591;51.446;5.404;2022-09-01T03:49:23;15.50;82.00
13049;DHT22;6591;51.446;5.404;2022-09-01T03:51:56;17.90;84.30
13049;DHT22;6591;51.446;5.404;2022-09-01T03:54:26;15.50;83.60
13049;DHT22;6591;51.446;5.404;2022-09-01T03:56:56;15.70;84.90
13049;DHT22;6591;51.446;5.404;2022-09-01T03:59:26;15.50;83.30
13049;DHT22;6591;51.446;5.404;2022-09-01T04:01:56;14.80;82.60
13049;DHT22;6591;51.446;5.404;2022-09-01T04:04:28;17.90;85.10
13049;DHT22;6591;51.446;5.404;2022-09-01T04:07:01;15.60;83.50
13049;DHT22;6591;51.446;5.404;2022-09-01T04:09:32;15.50;83.20
13049;DHT22;6591;51.446;5.404;2022-09-01T04:12:04;17.70;85.40
13049;DHT22;6591;51.446;5.404;2022-09-01T04:14:38;15.40;84.90
13049;DHT22;6591;51.446;5.404;2022-09-01T04:17:05;15.70;85.60
13049;DHT22;6591;51.446;5.404;2022-09-01T04:19:56;16.30;85.10
13049;DHT22;6591;51.446;5.404;2022-09-01T04:22:27;15.50;84.00
13049;DHT22;6591;51.446;5.404;2022-09-01T04:25:01;15.60;84.70
13049;DHT22;6591;51.446;5.404;2022-09-01T04:27:28;15.60;84.50
13049;DHT22;6591;51.446;5.404;2022-09-01T04:29:55;15.90;85.60
13049;DHT22;6591;51.446;5.404;2022-09-01T04:32:27;15.60;84.90
13049;DHT22;6591;51.446;5.404;2022-09-01T04:34:57;17.00;85.20
13049;DHT22;6591;51.446;5.404;2022-09-01T04:37:28;15.70;83.90
13049;DHT22;6591;51.446;5.404;2022-09-01T04:39:59;14.00;83.20
13049;DHT22;6591;51.446;5.404;2022-09-01T04:42:29;18.00;85.30
13049;DHT22;6591;51.446;5.404;2022-09-01T04:45:00;18.20;86.50
13049;DHT22;6591;51.446;5.404;2022-09-01T04:47:42;17.30;85.70
13049;DHT22;6591;51.446;5.404;2022-09-01T04:50:15;13.40;83.00
13049;DHT22;6591;51.446;5.404;2022-09-01T04:53:03;15.60;84.90
13049;DHT22;6591;51.446;5.404;2022-09-01T04:55:39;17.70;86.40
13049;DHT22;6591;51.446;5.404;2022-09-01T04:58:12;16.50;86.50
13049;DHT22;6591;51.446;5.404;2022-09-01T05:00:46;17.60;86.50
13049;DHT22;6591;51.446;5.404;2022-09-01T05:03:16;15.70;85.50
13049;DHT22;6591;51.446;5.404;2022-09-01T05:05:53;15.60;84.90
13049;DHT22;6591;51.446;5.404;2022-09-01T05:08:21;17.50;85.90
13049;DHT22;6591;51.446;5.404;2022-09-01T05:10:53;17.40;86.40
13049;DHT22;6591;51.446;5.404;2022-09-01T05:13:45;16.50;86.10
13049;DHT22;6591;51.446;5.404;2022-09-01T05:16:18;16.60;86.30
13049;DHT22;6591;51.446;5.404;2022-09-01T05:18:54;16.60;86.50
13049;DHT22;6591;51.446;5.404;2022-09-01T05:21:28;15.70;86.10
13049;DHT22;6591;51.446;5.404;2022-09-01T05:23:59;16.20;86.40
13049;DHT22;6591;51.446;5.404;2022-09-01T05:26:29;14.00;85.60
13049;DHT22;6591;51.446;5.404;2022-09-01T05:29:01;14.50;85.20
13049;DHT22;6591;51.446;5.404;2022-09-01T05:31:32;16.80;86.70
13049;DHT22;6591;51.446;5.404;2022-09-01T05:34:04;18.20;87.20
13049;DHT22;6591;51.446;5.404;2022-09-01T05:36:37;16.10;86.50
13049;DHT22;6591;51.446;5.404;2022-09-01T05:39:09;16.80;86.90
13049;DHT22;6591;51.446;5.404;2022-09-01T05:41:39;16.20;85.80
13049;DHT22;6591;51.446;5.404;2022-09-01T05:44:08;17.20;86.10
13049;DHT22;6591;51.446;5.404;2022-09-01T05:46:38;16.30;85.40
13049;DHT22;6591;51.446;5.404;2022-09-01T05:49:07;17.70;86.50
13049;DHT22;6591;51.446;5.404;2022-09-01T05:51:41;18.30;86.80
13049;DHT22;6591;51.446;5.404;2022-09-01T05:54:20;16.40;85.00
13049;DHT22;6591;51.446;5.404;2022-09-01T05:56:51;16.50;84.80
13049;DHT22;6591;51.446;5.404;2022-09-01T05:59:22;18.90;86.00
13049;DHT22;6591;51.446;5.404;2022-09-01T06:02:08;17.00;85.10
13049;DHT22;6591;51.446;5.404;2022-09-01T06:04:38;18.90;86.30
13049;DHT22;6591;51.446;5.404;2022-09-01T06:07:16;17.00;84.60
13049;DHT22;6591;51.446;5.404;2022-09-01T06:09:52;18.40;85.40
13049;DHT22;6591;51.446;5.404;2022-09-01T06:12:22;18.70;85.20
13049;DHT22;6591;51.446;5.404;2022-09-01T06:14:53;16.90;84.20
13049;DHT22;6591;51.446;5.404;2022-09-01T06:17:24;16.90;85.00
13049;DHT22;6591;51.446;5.404;2022-09-01T06:19:56;17.40;84.30
13049;DHT22;6591;51.446;5.404;2022-09-01T06:22:27;17.10;83.80
13049;DHT22;6591;51.446;5.404;2022-09-01T06:24:56;17.10;83.70
13049;DHT22;6591;51.446;5.404;2022-09-01T06:27:35;17.20;83.60
13049;DHT22;6591;51.446;5.404;2022-09-01T06:30:11;17.30;83.20
13049;DHT22;6591;51.446;5.404;2022-09-01T06:33:05;17.40;83.30
13049;DHT22;6591;51.446;5.404;2022-09-01T06:35:41;18.80;83.90
13049;DHT22;6591;51.446;5.404;2022-09-01T06:38:12;17.80;83.10
13049;DHT22;6591;51.446;5.404;2022-09-01T06:40:47;17.70;82.90
13049;DHT22;6591;51.446;5.404;2022-09-01T06:43:20;17.90;82.60
13049;DHT22;6591;51.446;5.404;2022-09-01T06:45:50;18.00;82.50
13049;DHT22;6591;51.446;5.404;2022-09-01T06:48:27;18.00;82.30
13049;DHT22;6591;51.446;5.404;2022-09-01T06:51:06;18.20;82.20
13049;DHT22;6591;51.446;5.404;2022-09-01T06:53:51;18.30;81.70
13049;DHT22;6591;51.446;5.404;2022-09-01T06:56:30;18.40;81.90
13049;DHT22;6591;51.446;5.404;2022-09-01T06:59:08;18.60;81.70
13049;DHT22;6591;51.446;5.404;2022-09-01T07:01:36;18.70;81.00
13049;DHT22;6591;51.446;5.404;2022-09-01T07:04:06;18.80;82.00
13049;DHT22;6591;51.446;5.404;2022-09-01T07:07:00;18.90;81.20
13049;DHT22;6591;51.446;5.404;2022-09-01T07:10:08;19.20;81.10
13049;DHT22;6591;51.446;5.404;2022-09-01T07:13:05;21.80;81.90
13049;DHT22;6591;51.446;5.404;2022-09-01T07:15:39;20.10;80.10
13049;DHT22;6591;51.446;5.404;2022-09-01T07:18:31;19.80;79.80
13049;DHT22;6591;51.446;5.404;2022-09-01T07:21:01;21.90;80.90
13049;DHT22;6591;51.446;5.404;2022-09-01T07:23:54;20.00;78.70
13049;DHT22;6591;51.446;5.404;2022-09-01T07:26:51;20.30;78.50
13049;DHT22;6591;51.446;5.404;2022-09-01T07:29:21;20.40;78.00
13049;DHT22;6591;51.446;5.404;2022-09-01T07:31:52;20.60;78.10
13049;DHT22;6591;51.446;5.404;2022-09-01T07:34:41;20.70;77.90
13049;DHT22;6591;51.446;5.404;2022-09-01T07:37:15;22.80;78.60
13049;DHT22;6591;51.446;5.404;2022-09-01T07:40:12;21.00;77.30
13049;DHT22;6591;51.446;5.404;2022-09-01T07:43:25;21.10;77.40
13049;DHT22;6591;51.446;5.404;2022-09-01T07:46:24;21.40;77.00
13049;DHT22;6591;51.446;5.404;2022-09-01T07:49:13;21.80;76.60
13049;DHT22;6591;51.446;5.404;2022-09-01T07:52:00;21.10;75.20
13049;DHT22;6591;51.446;5.404;2022-09-01T07:54:30;22.20;74.80
13049;DHT22;6591;51.446;5.404;2022-09-01T07:56:57;24.50;76.00
13049;DHT22;6591;51.446;5.404;2022-09-01T07:59:30;22.50;75.20
13049;DHT22;6591;51.446;5.404;2022-09-01T08:02:16;22.70;74.80
13049;DHT22;6591;51.446;5.404;2022-09-01T08:04:45;22.90;73.80
13049;DHT22;6591;51.446;5.404;2022-09-01T08:07:13;23.10;73.40
13049;DHT22;6591;51.446;5.404;2022-09-01T08:09:42;23.30;72.20
13049;DHT22;6591;51.446;5.404;2022-09-01T08:12:12;22.50;71.60
13049;DHT22;6591;51.446;5.404;2022-09-01T08:14:49;24.50;72.50
13049;DHT22;6591;51.446;5.404;2022-09-01T08:17:39;23.90;71.70
13049;DHT22;6591;51.446;5.404;2022-09-01T08:20:25;25.10;71.90
13049;DHT22;6591;51.446;5.404;2022-09-01T08:23:00;24.70;71.40
13049;DHT22;6591;51.446;5.404;2022-09-01T08:25:34;24.50;69.90
13049;DHT22;6591;51.446;5.404;2022-09-01T08:28:04;24.60;70.30
13049;DHT22;6591;51.446;5.404;2022-09-01T08:30:33;24.70;69.30
13049;DHT22;6591;51.446;5.404;2022-09-01T08:33:02;24.90;69.20
13049;DHT22;6591;51.446;5.404;2022-09-01T08:35:42;25.10;68.70
13049;DHT22;6591;51.446;5.404;2022-09-01T08:38:13;27.40;69.50
13049;DHT22;6591;51.446;5.404;2022-09-01T08:40:48;25.30;67.60
13049;DHT22;6591;51.446;5.404;2022-09-01T08:46:21;25.50;65.90
13049;DHT22;6591;51.446;5.404;2022-09-01T08:49:09;25.50;66.60
13049;DHT22;6591;51.446;5.404;2022-09-01T08:52:18;25.70;65.20
13049;DHT22;6591;51.446;5.404;2022-09-01T08:54:56;25.60;65.30
13049;DHT22;6591;51.446;5.404;2022-09-01T08:57:44;25.80;65.90
13049;DHT22;6591;51.446;5.404;2022-09-01T09:00:21;26.00;66.30
13049;DHT22;6591;51.446;5.404;2022-09-01T09:03:01;26.30;66.10
13049;DHT22;6591;51.446;5.404;2022-09-01T09:05:56;26.50;65.30
13049;DHT22;6591;51.446;5.404;2022-09-01T09:17:00;27.20;61.90
13049;DHT22;6591;51.446;5.404;2022-09-01T09:19:35;27.30;62.70
13049;DHT22;6591;51.446;5.404;2022-09-01T09:22:08;25.90;60.50
13049;DHT22;6591;51.446;5.404;2022-09-01T09:25:10;29.70;63.40
13049;DHT22;6591;51.446;5.404;2022-09-01T09:27:48;27.80;59.00
13049;DHT22;6591;51.446;5.404;2022-09-01T09:30:30;27.90;60.80
13049;DHT22;6591;51.446;5.404;2022-09-01T09:33:04;28.10;59.60
13049;DHT22;6591;51.446;5.404;2022-09-01T09:36:17;28.10;58.00
13049;DHT22;6591;51.446;5.404;2022-09-01T09:39:04;28.00;58.70
13049;DHT22;6591;51.446;5.404;2022-09-01T09:41:36;28.00;56.70
13049;DHT22;6591;51.446;5.404;2022-09-01T09:44:32;28.10;58.30
13049;DHT22;6591;51.446;5.404;2022-09-01T09:47:00;26.20;55.60
13049;DHT22;6591;51.446;5.404;2022-09-01T09:49:30;28.10;56.30
13049;DHT22;6591;51.446;5.404;2022-09-01T09:55:05;28.20;56.80
13049;DHT22;6591;51.446;5.404;2022-09-01T09:57:49;28.30;56.20
13049;DHT22;6591;51.446;5.404;2022-09-01T10:00:31;28.40;56.50
13049;DHT22;6591;51.446;5.404;2022-09-01T10:03:06;28.60;55.80
13049;DHT22;6591;51.446;5.404;2022-09-01T10:05:40;28.70;55.00
13049;DHT22;6591;51.446;5.404;2022-09-01T10:08:14;28.90;55.00
13049;DHT22;6591;51.446;5.404;2022-09-01T10:14:33;29.40;52.80
13049;DHT22;6591;51.446;5.404;2022-09-01T10:17:30;29.50;52.50
13049;DHT22;6591;51.446;5.404;2022-09-01T10:20:22;29.60;51.00
13049;DHT22;6591;51.446;5.404;2022-09-01T10:22:52;29.70;51.30
13049;DHT22;6591;51.446;5.404;2022-09-01T10:25:23;29.80;52.10
13049;DHT22;6591;51.446;5.404;2022-09-01T10:27:59;29.90;52.10
13049;DHT22;6591;51.446;5.404;2022-09-01T10:30:34;30.10;50.60
13049;DHT22;6591;51.446;5.404;2022-09-01T10:33:10;30.20;51.50
13049;DHT22;6591;51.446;5.404;2022-09-01T10:35:51;31.70;51.80
13049;DHT22;6591;51.446;5.404;2022-09-01T10:38:28;30.60;51.00
13049;DHT22;6591;51.446;5.404;2022-09-01T10:41:01;30.80;50.10
13049;DHT22;6591;51.446;5.404;2022-09-01T10:43:46;31.00;49.40
13049;DHT22;6591;51.446;5.404;2022-09-01T10:48:56;31.20;48.10
13049;DHT22;6591;51.446;5.404;2022-09-01T10:57:40;31.50;47.30
13049;DHT22;6591;51.446;5.404;2022-09-01T11:06:05;31.80;46.40
13049;DHT22;6591;51.446;5.404;2022-09-01T11:08:40;31.70;46.70
13049;DHT22;6591;51.446;5.404;2022-09-01T11:11:30;31.70;46.90
13049;DHT22;6591;51.446;5.404;2022-09-01T11:14:22;31.80;46.10
13049;DHT22;6591;51.446;5.404;2022-09-01T11:17:17;31.70;46.10
13049;DHT22;6591;51.446;5.404;2022-09-01T11:19:57;31.80;44.90
13049;DHT22;6591;51.446;5.404;2022-09-01T11:28:41;32.10;43.80
13049;DHT22;6591;51.446;5.404;2022-09-01T11:31:25;32.90;45.20
13049;DHT22;6591;51.446;5.404;2022-09-01T11:34:11;32.30;44.90
13049;DHT22;6591;51.446;5.404;2022-09-01T11:36:51;32.40;42.80
13049;DHT22;6591;51.446;5.404;2022-09-01T11:39:33;32.30;43.80
13049;DHT22;6591;51.446;5.404;2022-09-01T11:42:28;32.40;43.40
13049;DHT22;6591;51.446;5.404;2022-09-01T11:45:12;32.30;42.90
13049;DHT22;6591;51.446;5.404;2022-09-01T11:47:50;32.20;44.00
13049;DHT22;6591;51.446;5.404;2022-09-01T11:50:28;32.20;44.20
13049;DHT22;6591;51.446;5.404;2022-09-01T11:55:41;32.70;43.80
13049;DHT22;6591;51.446;5.404;2022-09-01T11:58:35;31.80;43.20
13049;DHT22;6591;51.446;5.404;2022-09-01T12:04:25;33.50;41.30
13049;DHT22;6591;51.446;5.404;2022-09-01T12:06:58;33.50;39.90
13049;DHT22;6591;51.446;5.404;2022-09-01T12:09:51;33.60;40.80
13049;DHT22;6591;51.446;5.404;2022-09-01T12:12:48;33.30;40.70
13049;DHT22;6591;51.446;5.404;2022-09-01T12:15:24;33.30;38.60
13049;DHT22;6591;51.446;5.404;2022-09-01T12:17:52;33.20;39.10
13049;DHT22;6591;51.446;5.404;2022-09-01T12:20:35;32.90;40.60
13049;DHT22;6591;51.446;5.404;2022-09-01T12:23:28;33.00;40.50
13049;DHT22;6591;51.446;5.404;2022-09-01T12:26:02;33.00;38.50
13049;DHT22;6591;51.446;5.404;2022-09-01T12:28:38;32.80;39.60
13049;DHT22;6591;51.446;5.404;2022-09-01T12:31:13;32.70;39.90
13049;DHT22;6591;51.446;5.404;2022-09-01T12:33:43;32.80;39.30
13049;DHT22;6591;51.446;5.404;2022-09-01T12:36:28;32.80;39.30
13049;DHT22;6591;51.446;5.404;2022-09-01T12:41:59;32.60;39.30
13049;DHT22;6591;51.446;5.404;2022-09-01T12:47:10;32.90;39.00
13049;DHT22;6591;51.446;5.404;2022-09-01T12:50:53;34.80;40.20
13049;DHT22;6591;51.446;5.404;2022-09-01T12:52:57;33.10;37.70
13049;DHT22;6591;51.446;5.404;2022-09-01T12:55:33;34.70;38.90
13049;DHT22;6591;51.446;5.404;2022-09-01T12:58:22;32.90;37.40
13049;DHT22;6591;51.446;5.404;2022-09-01T13:01:04;34.80;37.80
13049;DHT22;6591;51.446;5.404;2022-09-01T13:03:42;32.60;37.10
13049;DHT22;6591;51.446;5.404;2022-09-01T13:06:29;32.50;37.80
13049;DHT22;6591;51.446;5.404;2022-09-01T13:08:56;32.50;38.10
13049;DHT22;6591;51.446;5.404;2022-09-01T13:11:23;32.60;37.10
13049;DHT22;6591;51.446;5.404;2022-09-01T13:13:50;32.60;36.60
13049;DHT22;6591;51.446;5.404;2022-09-01T13:16:17;32.50;37.00
13049;DHT22;6591;51.446;5.404;2022-09-01T13:18:44;32.70;37.40
13049;DHT22;6591;51.446;5.404;2022-09-01T13:21:33;32.80;37.80
13049;DHT22;6591;51.446;5.404;2022-09-01T13:24:03;32.90;37.60
13049;DHT22;6591;51.446;5.404;2022-09-01T13:26:33;33.00;36.60
13049;DHT22;6591;51.446;5.404;2022-09-01T13:29:03;33.20;35.30
13049;DHT22;6591;51.446;5.404;2022-09-01T13:31:30;33.00;35.70
13049;DHT22;6591;51.446;5.404;2022-09-01T13:34:00;33.10;35.70
13049;DHT22;6591;51.446;5.404;2022-09-01T13:36:47;32.90;35.10
13049;DHT22;6591;51.446;5.404;2022-09-01T13:39:18;32.90;35.30
13049;DHT22;6591;51.446;5.404;2022-09-01T13:41:47;32.80;35.90
13049;DHT22;6591;51.446;5.404;2022-09-01T13:44:15;32.70;36.40
13049;DHT22;6591;51.446;5.404;2022-09-01T13:46:44;32.80;35.50
13049;DHT22;6591;51.446;5.404;2022-09-01T13:49:32;32.80;35.00
13049;DHT22;6591;51.446;5.404;2022-09-01T13:52:10;32.80;34.70
13049;DHT22;6591;51.446;5.404;2022-09-01T13:54:38;32.70;33.90
13049;DHT22;6591;51.446;5.404;2022-09-01T13:57:05;32.60;34.10
13049;DHT22;6591;51.446;5.404;2022-09-01T13:59:32;32.40;34.40
13049;DHT22;6591;51.446;5.404;2022-09-01T14:01:59;32.30;34.50
13049;DHT22;6591;51.446;5.404;2022-09-01T14:04:27;31.80;35.00
13049;DHT22;6591;51.446;5.404;2022-09-01T14:06:55;32.10;35.90
13049;DHT22;6591;51.446;5.404;2022-09-01T14:09:28;32.20;36.20
13049;DHT22;6591;51.446;5.404;2022-09-01T14:11:55;32.50;36.60
13049;DHT22;6591;51.446;5.404;2022-09-01T14:14:22;32.70;35.40
13049;DHT22;6591;51.446;5.404;2022-09-01T14:16:49;32.90;35.60
13049;DHT22;6591;51.446;5.404;2022-09-01T14:19:17;35.00;36.90
13049;DHT22;6591;51.446;5.404;2022-09-01T14:21:44;34.50;35.60
13049;DHT22;6591;51.446;5.404;2022-09-01T14:24:12;33.20;34.60
13049;DHT22;6591;51.446;5.404;2022-09-01T14:26:40;33.30;35.00
13049;DHT22;6591;51.446;5.404;2022-09-01T14:29:08;33.40;35.20
13049;DHT22;6591;51.446;5.404;2022-09-01T14:31:35;33.60;34.30
13049;DHT22;6591;51.446;5.404;2022-09-01T14:34:03;33.60;34.70
13049;DHT22;6591;51.446;5.404;2022-09-01T14:36:32;33.80;35.60
13049;DHT22;6591;51.446;5.404;2022-09-01T14:38:59;33.90;35.00
13049;DHT22;6591;51.446;5.404;2022-09-01T14:41:26;34.00;35.00
13049;DHT22;6591;51.446;5.404;2022-09-01T14:43:54;34.20;34.80
13049;DHT22;6591;51.446;5.404;2022-09-01T14:46:30;34.50;35.30
13049;DHT22;6591;51.446;5.404;2022-09-01T14:49:01;35.80;35.60
13049;DHT22;6591;51.446;5.404;2022-09-01T14:51:30;34.90;34.70
13049;DHT22;6591;51.446;5.404;2022-09-01T14:54:18;35.30;35.00
13049;DHT22;6591;51.446;5.404;2022-09-01T14:56:45;35.30;34.10
13049;DHT22;6591;51.446;5.404;2022-09-01T14:59:33;35.50;34.10
13049;DHT22;6591;51.446;5.404;2022-09-01T15:02:00;35.70;34.30
13049;DHT22;6591;51.446;5.404;2022-09-01T15:04:27;35.80;33.80
13049;DHT22;6591;51.446;5.404;2022-09-01T15:06:55;33.90;31.30
13049;DHT22;6591;51.446;5.404;2022-09-01T15:09:22;36.00;32.50
13049;DHT22;6591;51.446;5.404;2022-09-01T15:11:49;35.90;32.50
13049;DHT22;6591;51.446;5.404;2022-09-01T15:14:16;35.90;32.30
13049;DHT22;6591;51.446;5.404;2022-09-01T15:16:43;35.50;32.00
13049;DHT22;6591;51.446;5.404;2022-09-01T15:19:12;34.10;31.10
13049;DHT22;6591;51.446;5.404;2022-09-01T15:21:41;35.90;32.50
13049;DHT22;6591;51.446;5.404;2022-09-01T15:24:10;35.40;32.50
13049;DHT22;6591;51.446;5.404;2022-09-01T15:26:37;35.30;32.60
13049;DHT22;6591;51.446;5.404;2022-09-01T15:29:06;35.30;33.30
13049;DHT22;6591;51.446;5.404;2022-09-01T15:31:35;35.20;32.90
13049;DHT22;6591;51.446;5.404;2022-09-01T15:34:04;35.20;33.40
13049;DHT22;6591;51.446;5.404;2022-09-01T15:36:34;36.40;33.90
13049;DHT22;6591;51.446;5.404;2022-09-01T15:39:06;35.30;33.00
13049;DHT22;6591;51.446;5.404;2022-09-01T15:41:36;35.30;33.00
13049;DHT22;6591;51.446;5.404;2022-09-01T15:44:05;35.30;33.20
13049;DHT22;6591;51.446;5.404;2022-09-01T15:46:34;36.20;33.70
13049;DHT22;6591;51.446;5.404;2022-09-01T15:49:05;35.20;32.80
13049;DHT22;6591;51.446;5.404;2022-09-01T15:51:36;35.10;32.60
13049;DHT22;6591;51.446;5.404;2022-09-01T15:54:12;34.90;33.00
13049;DHT22;6591;51.446;5.404;2022-09-01T15:56:41;35.40;33.60
13049;DHT22;6591;51.446;5.404;2022-09-01T15:59:10;34.70;33.20
13049;DHT22;6591;51.446;5.404;2022-09-01T16:01:40;34.50;33.10
13049;DHT22;6591;51.446;5.404;2022-09-01T16:04:11;34.40;33.50
13049;DHT22;6591;51.446;5.404;2022-09-01T16:06:47;34.10;33.70
13049;DHT22;6591;51.446;5.404;2022-09-01T16:09:15;34.20;33.50
13049;DHT22;6591;51.446;5.404;2022-09-01T16:11:46;34.20;33.90
13049;DHT22;6591;51.446;5.404;2022-09-01T16:14:13;34.00;33.90
13049;DHT22;6591;51.446;5.404;2022-09-01T16:19:46;34.10;34.20
13049;DHT22;6591;51.446;5.404;2022-09-01T16:22:27;34.10;34.20
13049;DHT22;6591;51.446;5.404;2022-09-01T16:25:01;34.00;34.40
13049;DHT22;6591;51.446;5.404;2022-09-01T16:27:43;34.20;34.60
13049;DHT22;6591;51.446;5.404;2022-09-01T16:30:19;33.60;34.50
13049;DHT22;6591;51.446;5.404;2022-09-01T16:32:48;34.40;34.20
13049;DHT22;6591;51.446;5.404;2022-09-01T16:35:16;34.40;34.60
13049;DHT22;6591;51.446;5.404;2022-09-01T16:37:54;34.50;34.40
13049;DHT22;6591;51.446;5.404;2022-09-01T16:49:24;34.70;34.10
13049;DHT22;6591;51.446;5.404;2022-09-01T16:52:04;34.70;34.60
13049;DHT22;6591;51.446;5.404;2022-09-01T16:58:04;34.50;34.60
13049;DHT22;6591;51.446;5.404;2022-09-01T17:00:53;34.30;34.60
13049;DHT22;6591;51.446;5.404;2022-09-01T17:06:35;34.20;35.00
13049;DHT22;6591;51.446;5.404;2022-09-01T17:09:27;34.20;35.20
13049;DHT22;6591;51.446;5.404;2022-09-01T17:12:28;34.00;35.00
13049;DHT22;6591;51.446;5.404;2022-09-01T17:15:15;33.90;35.60
13049;DHT22;6591;51.446;5.404;2022-09-01T17:20:55;33.30;35.00
13049;DHT22;6591;51.446;5.404;2022-09-01T17:24:04;32.70;35.30
13049;DHT22;6591;51.446;5.404;2022-09-01T17:27:02;32.30;35.60
13049;DHT22;6591;51.446;5.404;2022-09-01T17:29:49;31.80;36.00
13049;DHT22;6591;51.446;5.404;2022-09-01T17:35:50;30.80;37.00
13049;DHT22;6591;51.446;5.404;2022-09-01T17:41:38;28.20;36.60
13049;DHT22;6591;51.446;5.404;2022-09-01T17:52:43;28.50;40.50
13049;DHT22;6591;51.446;5.404;2022-09-01T18:01:33;26.10;41.40
13049;DHT22;6591;51.446;5.404;2022-09-01T18:13:48;26.70;43.00
13049;DHT22;6591;51.446;5.404;2022-09-01T18:16:59;26.50;43.50
13049;DHT22;6591;51.446;5.404;2022-09-01T18:19:43;26.20;44.80
13049;DHT22;6591;51.446;5.404;2022-09-01T18:22:16;26.10;44.40